createdAt,value
2018-11-20T00:02:09.508Z,61.47
2018-11-20T00:05:13.268Z,62.44
2018-11-20T00:08:19.525Z,62.41
2018-11-20T00:11:13.498Z,62.25
2018-11-20T00:13:51.569Z,62.35
2018-11-20T00:16:30.907Z,62.36
2018-11-20T00:19:19.301Z,62.58
2018-11-20T00:22:06.398Z,62.10
2018-11-20T00:24:57.660Z,61.84
2018-11-20T00:27:52.159Z,62.30
2018-11-20T00:30:40.849Z,61.99
2018-11-20T00:33:37.565Z,62.49
2018-11-20T00:36:32.046Z,62.26
2018-11-20T00:39:20.462Z,62.42
2018-11-20T00:42:11.492Z,62.37
2018-11-20T00:45:14.995Z,62.39
2018-11-20T00:48:12.409Z,62.34
2018-11-20T00:51:09.992Z,62.87
2018-11-20T00:54:01.445Z,62.47
2018-11-20T00:56:42.492Z,62.36
2018-11-20T00:59:23.933Z,62.66
2018-11-20T01:02:12.908Z,62.70
2018-11-20T01:04:57.834Z,62.74
2018-11-20T01:07:45.407Z,63.41
2018-11-20T01:10:39.519Z,63.14
2018-11-20T01:13:26.506Z,63.22
2018-11-20T01:16:12.799Z,62.68
2018-11-20T01:19:04.178Z,62.71
2018-11-20T01:22:10.833Z,62.87
2018-11-20T01:25:03.698Z,63.23
2018-11-20T01:28:00.495Z,63.13
2018-11-20T01:30:47.583Z,63.03
2018-11-20T01:33:34.829Z,63.35
2018-11-20T01:36:13.193Z,62.95
2018-11-20T01:39:01.601Z,63.15
2018-11-20T01:41:52.814Z,63.03
2018-11-20T01:44:47.135Z,63.13
2018-11-20T01:47:33.873Z,62.88
2018-11-20T01:50:21.474Z,63.06
2018-11-20T01:53:28.949Z,63.99
2018-11-20T01:56:20.292Z,63.11
2018-11-20T01:59:00.860Z,62.89
2018-11-20T02:02:25.360Z,62.81
2018-11-20T02:05:05.375Z,63.26
2018-11-20T02:07:52.945Z,63.05
2018-11-20T02:10:40.586Z,62.97
2018-11-20T02:14:06.617Z,62.50
2018-11-20T02:17:32.641Z,62.18
2018-11-20T02:20:20.285Z,62.99
2018-11-20T02:23:08.172Z,62.87
2018-11-20T02:25:56.730Z,62.72
2018-11-20T02:28:44.427Z,63.34
2018-11-20T02:31:32.120Z,63.02
2018-11-20T02:34:20.743Z,63.16
2018-11-20T02:37:08.036Z,63.74
2018-11-20T02:39:57.207Z,63.90
2018-11-20T02:42:45.437Z,63.71
2018-11-20T02:45:33.420Z,63.83
2018-11-20T02:48:21.086Z,63.76
2018-11-20T02:51:04.346Z,63.76
2018-11-20T02:53:51.900Z,63.48
2018-11-20T02:56:39.548Z,64.00
2018-11-20T02:59:26.838Z,63.85
2018-11-20T03:02:14.575Z,64.07
2018-11-20T03:05:01.871Z,64.13
2018-11-20T03:07:50.272Z,64.24
2018-11-20T03:10:38.403Z,63.82
2018-11-20T03:13:26.019Z,64.09
2018-11-20T03:16:13.354Z,64.17
2018-11-20T03:19:00.682Z,64.19
2018-11-20T03:21:47.959Z,64.15
2018-11-20T03:24:36.188Z,64.37
2018-11-20T03:27:23.542Z,64.77
2018-11-20T03:30:49.584Z,64.68
2018-11-20T03:33:37.565Z,65.16
2018-11-20T03:36:24.871Z,64.89
2018-11-20T03:39:13.274Z,64.54
2018-11-20T03:42:00.633Z,64.23
2018-11-20T03:44:49.218Z,64.07
2018-11-20T03:47:37.672Z,63.77
2018-11-20T03:50:25.293Z,64.17
2018-11-20T03:53:32.809Z,64.01
2018-11-20T03:56:20.389Z,64.68
2018-11-20T03:59:08.377Z,64.31
2018-11-20T04:01:56.938Z,64.08
2018-11-20T04:04:44.815Z,63.87
2018-11-20T04:07:32.455Z,64.05
2018-11-20T04:10:20.600Z,63.92
2018-11-20T04:13:08.152Z,63.83
2018-11-20T04:15:56.816Z,63.79
2018-11-20T04:18:44.902Z,63.39
2018-11-20T04:21:32.533Z,63.41
2018-11-20T04:24:20.429Z,63.67
2018-11-20T04:26:59.912Z,63.78
2018-11-20T04:30:06.650Z,63.14
2018-11-20T04:32:44.547Z,63.04
2018-11-20T04:35:32.694Z,63.17
2018-11-20T04:38:20.818Z,63.22
2018-11-20T04:41:08.544Z,63.58
2018-11-20T04:43:56.376Z,62.84
2018-11-20T04:46:44.945Z,63.19
2018-11-20T04:49:32.565Z,63.50
2018-11-20T04:52:23.675Z,63.09
2018-11-20T04:55:11.295Z,63.74
2018-11-20T04:57:59.354Z,63.42
2018-11-20T05:00:47.485Z,63.30
2018-11-20T05:03:36.043Z,62.99
2018-11-20T05:06:23.387Z,62.97
2018-11-20T05:09:10.990Z,63.47
2018-11-20T05:11:59.536Z,63.57
2018-11-20T05:14:46.860Z,62.38
2018-11-20T05:17:34.798Z,62.74
2018-11-20T05:20:22.471Z,62.11
2018-11-20T05:23:10.662Z,63.39
2018-11-20T05:25:59.245Z,62.33
2018-11-20T05:28:47.428Z,63.05
2018-11-20T05:31:34.999Z,62.43
2018-11-20T05:34:22.598Z,62.72
2018-11-20T05:37:10.487Z,62.82
2018-11-20T05:39:58.155Z,62.98
2018-11-20T05:42:46.187Z,62.47
2018-11-20T05:45:53.193Z,62.21
2018-11-20T05:48:40.535Z,62.00
2018-11-20T05:51:28.660Z,62.49
2018-11-20T05:54:11.770Z,62.44
2018-11-20T05:56:53.149Z,62.23
2018-11-20T05:59:50.047Z,62.72
2018-11-20T06:02:36.691Z,62.54
2018-11-20T06:05:23.242Z,62.28
2018-11-20T06:08:09.977Z,62.75
2018-11-20T06:10:55.505Z,62.78
2018-11-20T06:13:40.083Z,62.63
2018-11-20T06:16:36.587Z,62.75
2018-11-20T06:19:27.043Z,63.02
2018-11-20T06:22:04.302Z,63.46
2018-11-20T06:24:51.274Z,63.45
2018-11-20T06:27:39.436Z,63.05
2018-11-20T06:30:45.695Z,63.00
2018-11-20T06:33:31.723Z,63.15
2018-11-20T06:36:25.091Z,63.25
2018-11-20T06:39:12.557Z,63.05
2018-11-20T06:41:54.362Z,62.88
2018-11-20T06:44:51.996Z,62.75
2018-11-20T06:47:39.053Z,62.78
2018-11-20T06:50:37.887Z,62.54
2018-11-20T06:53:25.626Z,63.00
2018-11-20T06:56:19.350Z,62.14
2018-11-20T06:59:07.025Z,62.56
2018-11-20T07:02:00.056Z,62.48
2018-11-20T07:04:46.428Z,62.01
2018-11-20T07:07:45.817Z,62.28
2018-11-20T07:10:31.582Z,61.93
2018-11-20T07:13:39.565Z,62.30
2018-11-20T07:16:55.914Z,63.21
2018-11-20T07:19:45.754Z,61.97
2018-11-20T07:22:40.479Z,62.23
2018-11-20T07:25:34.676Z,62.61
2018-11-20T07:28:37.118Z,62.46
2018-11-20T07:31:31.548Z,62.69
2018-11-20T07:34:31.310Z,62.68
2018-11-20T07:37:10.065Z,63.58
2018-11-20T07:40:09.725Z,62.45
2018-11-20T07:43:13.310Z,62.74
2018-11-20T07:46:13.933Z,62.15
2018-11-20T07:49:00.343Z,62.53
2018-11-20T07:51:47.556Z,62.66
2018-11-20T07:54:34.336Z,62.65
2018-11-20T07:57:22.557Z,61.84
2018-11-20T08:00:09.096Z,62.25
2018-11-20T08:02:56.998Z,62.74
2018-11-20T08:05:39.117Z,62.86
2018-11-20T08:08:26.856Z,62.54
2018-11-20T08:11:27.048Z,63.26
2018-11-20T08:14:11.320Z,63.21
2018-11-20T08:16:47.979Z,62.81
2018-11-20T08:19:41.358Z,62.48
2018-11-20T08:22:37.770Z,62.62
2018-11-20T08:25:24.026Z,62.95
2018-11-20T08:28:17.565Z,62.49
2018-11-20T08:31:09.094Z,62.41
2018-11-20T08:34:00.179Z,63.13
2018-11-20T08:36:56.975Z,62.22
2018-11-20T08:39:50.882Z,62.47
2018-11-20T08:42:37.399Z,62.84
2018-11-20T08:45:23.640Z,63.16
2018-11-20T08:48:17.559Z,62.66
2018-11-20T08:51:17.692Z,62.63
2018-11-20T08:54:03.944Z,62.81
2018-11-20T08:56:54.638Z,62.91
2018-11-20T08:59:45.490Z,63.03
2018-11-20T09:02:32.045Z,63.29
2018-11-20T09:05:19.902Z,62.47
2018-11-20T09:08:06.535Z,63.17
2018-11-20T09:10:54.245Z,63.37
2018-11-20T09:13:51.788Z,63.01
2018-11-20T09:16:38.135Z,62.44
2018-11-20T09:19:24.422Z,62.27
2018-11-20T09:22:03.527Z,62.07
2018-11-20T09:24:53.583Z,62.48
2018-11-20T09:27:46.643Z,62.84
2018-11-20T09:30:39.881Z,62.36
2018-11-20T09:33:42.499Z,62.47
2018-11-20T09:36:29.305Z,62.06
2018-11-20T09:39:20.321Z,62.17
2018-11-20T09:42:07.422Z,61.97
2018-11-20T09:45:18.041Z,62.27
2018-11-20T09:48:04.289Z,62.68
2018-11-20T09:50:51.189Z,62.69
2018-11-20T09:53:44.877Z,61.75
2018-11-20T09:56:27.393Z,62.22
2018-11-20T09:59:33.759Z,61.58
2018-11-20T10:02:24.237Z,61.56
2018-11-20T10:05:11.958Z,62.01
2018-11-20T10:07:49.733Z,61.27
2018-11-20T10:10:58.181Z,61.57
2018-11-20T10:13:52.003Z,61.13
2018-11-20T10:16:42.415Z,61.09
2018-11-20T10:19:29.293Z,61.12
2018-11-20T10:22:16.097Z,61.80
2018-11-20T10:24:56.294Z,61.36
2018-11-20T10:27:40.078Z,61.94
2018-11-20T10:30:26.639Z,61.99
2018-11-20T10:33:25.933Z,62.16
2018-11-20T10:36:11.938Z,61.12
2018-11-20T10:39:08.374Z,61.76
2018-11-20T10:41:55.301Z,61.16
2018-11-20T10:44:51.984Z,61.26
2018-11-20T10:47:38.292Z,60.82
2018-11-20T10:50:25.517Z,60.78
2018-11-20T10:53:22.964Z,60.30
2018-11-20T10:56:16.375Z,60.74
2018-11-20T10:59:10.729Z,60.84
2018-11-20T11:01:57.596Z,61.19
2018-11-20T11:04:43.969Z,60.57
2018-11-20T11:07:47.886Z,60.92
2018-11-20T11:10:36.251Z,61.51
2018-11-20T11:13:23.290Z,61.28
2018-11-20T11:16:14.752Z,61.14
2018-11-20T11:19:00.880Z,61.08
2018-11-20T11:21:54.640Z,60.08
2018-11-20T11:24:48.150Z,60.36
2018-11-20T11:27:34.407Z,59.87
2018-11-20T11:30:20.042Z,60.14
2018-11-20T11:33:10.475Z,59.99
2018-11-20T11:35:56.629Z,59.94
2018-11-20T11:38:42.432Z,60.25
2018-11-20T11:41:27.068Z,59.94
2018-11-20T11:44:14.222Z,60.22
2018-11-20T11:47:01.273Z,60.17
2018-11-20T11:49:49.038Z,60.01
2018-11-20T11:52:39.501Z,59.73
2018-11-20T11:55:27.846Z,59.47
2018-11-20T11:58:18.756Z,59.55
2018-11-20T12:01:03.312Z,60.34
2018-11-20T12:03:50.680Z,59.83
2018-11-20T12:06:38.505Z,60.08
2018-11-20T12:09:28.393Z,59.54
2018-11-20T12:12:16.008Z,59.96
2018-11-20T12:15:04.157Z,59.27
2018-11-20T12:17:47.447Z,59.65
2018-11-20T12:20:35.736Z,59.35
2018-11-20T12:23:42.710Z,60.21
2018-11-20T12:26:30.602Z,60.41
2018-11-20T12:29:18.218Z,60.83
2018-11-20T12:32:06.390Z,59.88
2018-11-20T12:34:54.401Z,60.63
2018-11-20T12:37:43.644Z,60.38
2018-11-20T12:40:28.707Z,60.87
2018-11-20T12:43:18.241Z,61.18
2018-11-20T12:49:06.899Z,61.81
2018-11-20T12:51:53.588Z,61.31
2018-11-20T12:54:41.975Z,61.28
2018-11-20T12:57:17.937Z,61.85
2018-11-20T13:00:05.547Z,61.88
2018-11-20T13:02:53.748Z,61.86
2018-11-20T13:05:42.343Z,61.81
2018-11-20T13:08:31.162Z,61.56
2018-11-20T13:11:17.609Z,61.62
2018-11-20T13:14:06.325Z,61.46
2018-11-20T13:17:13.668Z,61.41
2018-11-20T13:20:03.896Z,61.37
2018-11-20T13:23:08.798Z,62.26
2018-11-20T13:25:56.186Z,61.80
2018-11-20T13:28:44.398Z,62.22
2018-11-20T13:31:32.325Z,61.92
2018-11-20T13:34:20.984Z,62.65
2018-11-20T13:37:09.933Z,62.69
2018-11-20T13:40:15.623Z,62.60
2018-11-20T13:43:04.698Z,62.85
2018-11-20T13:45:43.764Z,63.41
2018-11-20T13:48:30.049Z,62.93
2018-11-20T13:51:36.808Z,63.33
2018-11-20T13:54:24.652Z,63.67
2018-11-20T13:57:12.619Z,64.45
2018-11-20T14:00:01.540Z,64.22
2018-11-20T14:02:49.004Z,63.99
2018-11-20T14:05:36.704Z,64.14
2018-11-20T14:08:31.903Z,63.85
2018-11-20T14:11:20.104Z,64.22
2018-11-20T14:14:07.978Z,64.01
2018-11-20T14:16:55.633Z,64.92
2018-11-20T14:19:43.423Z,64.54
2018-11-20T14:25:48.287Z,64.65
2018-11-20T14:28:36.340Z,64.81
2018-11-20T14:31:23.741Z,64.10
2018-11-20T14:34:11.307Z,64.77
2018-11-20T14:36:58.964Z,65.08
2018-11-20T14:40:06.052Z,64.64
2018-11-20T14:43:13.610Z,64.88
2018-11-20T14:46:01.783Z,65.33
2018-11-20T14:48:49.956Z,65.26
2018-11-20T14:51:27.733Z,66.12
2018-11-20T14:54:15.904Z,65.97
2018-11-20T14:57:03.516Z,66.04
2018-11-20T14:59:50.837Z,66.24
2018-11-20T15:02:38.462Z,66.54
2018-11-20T15:05:26.654Z,66.01
2018-11-20T15:08:13.944Z,66.35
2018-11-20T15:11:01.533Z,66.68
2018-11-20T15:13:49.141Z,66.41
2018-11-20T15:16:25.466Z,66.62
2018-11-20T15:19:13.569Z,66.83
2018-11-20T15:22:00.951Z,67.41
2018-11-20T15:24:38.758Z,67.47
2018-11-20T15:27:26.353Z,67.69
2018-11-20T15:30:14.262Z,67.46
2018-11-20T15:33:01.959Z,67.53
2018-11-20T15:35:49.282Z,67.34
2018-11-20T15:38:37.305Z,67.50
2018-11-20T15:41:25.448Z,68.42
2018-11-20T15:44:14.000Z,69.10
2018-11-20T15:47:02.222Z,68.72
2018-11-20T15:49:51.979Z,69.32
2018-11-20T15:52:39.398Z,69.19
2018-11-20T15:55:19.623Z,69.41
2018-11-20T15:58:06.954Z,69.37
2018-11-20T16:00:47.892Z,69.53
2018-11-20T16:03:35.237Z,70.34
2018-11-20T16:06:22.817Z,70.39
2018-11-20T16:09:10.604Z,69.99
2018-11-20T16:11:51.332Z,70.10
2018-11-20T16:14:39.051Z,70.73
2018-11-20T16:17:26.680Z,70.79
2018-11-20T16:20:14.675Z,70.47
2018-11-20T16:23:02.020Z,70.22
2018-11-20T16:25:49.780Z,70.50
2018-11-20T16:28:37.524Z,70.91
2018-11-20T16:31:24.860Z,71.67
2018-11-20T16:34:12.570Z,71.42
2018-11-20T16:37:00.176Z,71.24
2018-11-20T16:39:47.814Z,71.54
2018-11-20T16:42:36.490Z,72.39
2018-11-20T16:45:24.209Z,72.50
2018-11-20T16:48:12.100Z,73.09
2018-11-20T16:51:00.260Z,72.55
2018-11-20T16:53:49.218Z,72.67
2018-11-20T16:56:36.850Z,72.85
2018-11-20T16:59:24.889Z,73.17
2018-11-20T17:02:12.536Z,74.10
2018-11-20T17:05:00.501Z,74.37
2018-11-20T17:07:48.102Z,74.03
2018-11-20T17:10:35.527Z,74.17
2018-11-20T17:13:24.012Z,74.35
2018-11-20T17:16:11.996Z,73.98
2018-11-20T17:19:00.113Z,73.96
2018-11-20T17:21:47.472Z,74.05
2018-11-20T17:24:35.446Z,74.89
2018-11-20T17:27:22.770Z,74.73
2018-11-20T17:30:02.727Z,74.72
2018-11-20T17:32:50.078Z,74.66
2018-11-20T17:35:38.341Z,74.42
2018-11-20T17:38:25.813Z,73.79
2018-11-20T17:41:11.061Z,74.39
2018-11-20T17:43:58.671Z,74.31
2018-11-20T17:46:46.561Z,74.84
2018-11-20T17:49:34.970Z,74.42
2018-11-20T17:52:22.411Z,74.78
2018-11-20T17:55:10.268Z,74.91
2018-11-20T17:57:53.367Z,74.98
2018-11-20T18:00:37.478Z,74.10
2018-11-20T18:03:25.786Z,74.53
2018-11-20T18:06:13.470Z,74.62
2018-11-20T18:09:00.833Z,74.30
2018-11-20T18:11:48.194Z,74.31
2018-11-20T18:14:36.321Z,73.99
2018-11-20T18:17:24.077Z,73.93
2018-11-20T18:20:01.403Z,73.86
2018-11-20T18:22:49.707Z,74.16
2018-11-20T18:25:37.383Z,74.28
2018-11-20T18:28:24.687Z,74.47
2018-11-20T18:31:12.296Z,74.17
2018-11-20T18:34:01.283Z,74.08
2018-11-20T18:36:48.882Z,74.46
2018-11-20T18:39:29.895Z,74.43
2018-11-20T18:42:17.873Z,74.19
2018-11-20T18:45:06.435Z,74.65
2018-11-20T18:47:53.375Z,74.92
2018-11-20T18:50:41.559Z,74.99
2018-11-20T18:53:29.667Z,75.06
2018-11-20T18:56:17.016Z,74.78
2018-11-20T18:58:53.253Z,74.94
2018-11-20T19:01:40.806Z,75.25
2018-11-20T19:04:28.514Z,74.90
2018-11-20T19:07:14.704Z,75.08
2018-11-20T19:10:02.008Z,75.36
2018-11-20T19:12:49.827Z,74.96
2018-11-20T19:15:37.113Z,75.12
2018-11-20T19:18:24.498Z,75.47
2018-11-20T19:21:11.829Z,75.62
2018-11-20T19:23:56.705Z,74.64
2018-11-20T19:26:44.359Z,74.84
2018-11-20T19:29:32.397Z,74.87
2018-11-20T19:32:20.489Z,74.72
2018-11-20T19:35:08.805Z,75.28
2018-11-20T19:37:57.348Z,75.19
2018-11-20T19:40:44.643Z,75.09
2018-11-20T19:43:33.044Z,75.29
2018-11-20T19:46:20.764Z,75.40
2018-11-20T19:49:27.786Z,74.79
2018-11-20T19:52:15.281Z,75.27
2018-11-20T19:55:22.317Z,75.27
2018-11-20T19:58:09.646Z,74.78
2018-11-20T20:00:57.365Z,75.73
2018-11-20T20:03:44.958Z,75.14
2018-11-20T20:06:32.908Z,75.05
2018-11-20T20:09:21.348Z,75.42
2018-11-20T20:12:05.465Z,75.41
2018-11-20T20:14:53.654Z,75.59
2018-11-20T20:17:41.394Z,75.48
2018-11-20T20:20:32.341Z,75.32
2018-11-20T20:23:20.532Z,75.41
2018-11-20T20:26:09.331Z,74.87
2018-11-20T20:28:57.503Z,75.41
2018-11-20T20:31:45.160Z,75.22
2018-11-20T20:34:33.213Z,75.05
2018-11-20T20:37:20.458Z,74.84
2018-11-20T20:40:27.532Z,75.15
2018-11-20T20:43:15.437Z,74.67
2018-11-20T20:46:03.080Z,74.92
2018-11-20T20:48:51.550Z,75.25
2018-11-20T20:51:38.869Z,75.12
2018-11-20T20:54:27.027Z,74.91
2018-11-20T20:57:14.649Z,74.34
2018-11-20T21:00:02.676Z,74.61
2018-11-20T21:02:50.453Z,74.92
2018-11-20T21:05:39.120Z,75.03
2018-11-20T21:08:27.663Z,74.71
2018-11-20T21:11:15.557Z,74.97
2018-11-20T21:14:03.195Z,74.85
2018-11-20T21:16:50.527Z,74.40
2018-11-20T21:19:30.173Z,74.45
2018-11-20T21:22:17.880Z,74.48
2018-11-20T21:25:06.500Z,74.14
2018-11-20T21:28:12.366Z,74.35
2018-11-20T21:31:00.271Z,73.89
2018-11-20T21:33:48.035Z,74.08
2018-11-20T21:36:25.141Z,73.67
2018-11-20T21:39:13.286Z,73.37
2018-11-20T21:42:00.574Z,73.35
2018-11-20T21:44:46.228Z,73.18
2018-11-20T21:47:33.858Z,73.55
2018-11-20T21:50:22.069Z,73.71
2018-11-20T21:53:10.911Z,73.92
2018-11-20T21:55:58.602Z,73.31
2018-11-20T21:58:37.937Z,73.18
2018-11-20T22:01:27.529Z,73.61
2018-11-20T22:04:15.991Z,73.44
2018-11-20T22:07:22.708Z,73.51
2018-11-20T22:10:11.231Z,73.39
2018-11-20T22:12:59.141Z,73.59
2018-11-20T22:15:46.464Z,73.55
2018-11-20T22:18:34.019Z,73.63
2018-11-20T22:21:22.680Z,73.56
2018-11-20T22:24:11.777Z,73.78
2018-11-20T22:26:59.131Z,74.01
2018-11-20T22:29:46.420Z,72.97
2018-11-20T22:32:34.888Z,73.61
2018-11-20T22:35:22.179Z,73.36
2018-11-20T22:38:10.654Z,73.64
2018-11-20T22:40:58.734Z,73.92
2018-11-20T22:43:46.381Z,73.53
2018-11-20T22:46:34.117Z,73.49
2018-11-20T22:49:22.816Z,73.47
2018-11-20T22:52:10.933Z,73.45
2018-11-20T22:54:58.581Z,73.40
2018-11-20T22:57:47.230Z,74.19
2018-11-20T23:00:34.520Z,73.91
2018-11-20T23:03:22.290Z,73.25
2018-11-20T23:06:08.559Z,74.71
2018-11-20T23:08:37.250Z,74.53
2018-11-20T23:11:06.679Z,75.11
2018-11-20T23:13:35.701Z,75.02
2018-11-20T23:16:05.564Z,74.59
2018-11-20T23:18:34.711Z,75.01
2018-11-20T23:21:03.571Z,75.06
2018-11-20T23:23:32.099Z,75.30
2018-11-20T23:26:00.896Z,75.10
2018-11-20T23:28:30.568Z,75.84
2018-11-20T23:30:59.977Z,75.42
2018-11-20T23:33:29.063Z,75.66
2018-11-20T23:35:57.411Z,75.79
2018-11-20T23:38:26.506Z,75.97
2018-11-20T23:40:56.103Z,76.24
2018-11-20T23:43:25.479Z,76.51
2018-11-20T23:45:54.121Z,76.29
2018-11-20T23:48:23.403Z,76.53
2018-11-20T23:50:52.368Z,76.75
2018-11-20T23:53:22.349Z,76.86
2018-11-20T23:55:51.458Z,76.61
2018-11-20T23:58:20.616Z,77.16
